createdAt,value
2023-02-20T00:00:52.201Z,99432.53
2023-02-20T00:03:18.661Z,99431.50
2023-02-20T00:05:45.053Z,99431.72
2023-02-20T00:08:11.471Z,99434.50
2023-02-20T00:10:37.985Z,99439.19
2023-02-20T00:13:04.478Z,99426.81
2023-02-20T00:15:30.989Z,99435.22
2023-02-20T00:17:57.456Z,99431.94
2023-02-20T00:20:24.495Z,99426.25
2023-02-20T00:22:51.410Z,99418.63
2023-02-20T00:25:19.658Z,99419.41
2023-02-20T00:27:46.118Z,99417.47
2023-02-20T00:30:23.467Z,99409.41
2023-02-20T00:32:50.864Z,99425.50
2023-02-20T00:35:17.670Z,99419.44
2023-02-20T00:37:45.089Z,99432.38
2023-02-20T00:40:12.142Z,99436.88
2023-02-20T00:42:38.885Z,99440.75
2023-02-20T00:45:06.011Z,99452.50
2023-02-20T00:47:32.575Z,99452.03
2023-02-20T00:49:59.025Z,99451.13
2023-02-20T00:52:25.632Z,99452.59
2023-02-20T00:54:52.282Z,99452.13
2023-02-20T00:57:18.665Z,99450.78
2023-02-20T00:59:45.409Z,99444.41
2023-02-20T01:02:11.822Z,99444.97
2023-02-20T01:04:38.215Z,99440.19
2023-02-20T01:07:04.617Z,99447.22
2023-02-20T01:09:31.645Z,99449.06
2023-02-20T01:11:58.015Z,99446.22
2023-02-20T01:14:25.169Z,99441.28
2023-02-20T01:16:52.103Z,99440.53
2023-02-20T01:19:19.471Z,99427.66
2023-02-20T01:21:46.209Z,99428.63
2023-02-20T01:24:12.666Z,99426.63
2023-02-20T01:26:40.593Z,99427.00
2023-02-20T01:29:07.101Z,99427.50
2023-02-20T01:31:33.557Z,99427.59
2023-02-20T01:34:00.034Z,99424.72
2023-02-20T01:36:27.478Z,99423.38
2023-02-20T01:38:53.877Z,99416.25
2023-02-20T01:41:20.970Z,99421.50
2023-02-20T01:43:47.386Z,99414.78
2023-02-20T01:46:28.642Z,99423.47
2023-02-20T01:49:05.519Z,99415.44
2023-02-20T01:51:36.306Z,99415.56
2023-02-20T01:54:03.442Z,99418.66
2023-02-20T01:56:30.525Z,99416.66
2023-02-20T01:58:56.929Z,99412.97
2023-02-20T02:01:23.331Z,99412.97
2023-02-20T02:03:50.183Z,99413.72
2023-02-20T02:06:16.586Z,99409.38
2023-02-20T02:08:43.356Z,99415.09
2023-02-20T02:11:12.809Z,99417.09
2023-02-20T02:13:39.455Z,99407.91
2023-02-20T02:16:08.459Z,99405.28
2023-02-20T02:18:44.124Z,99411.13
2023-02-20T02:21:22.945Z,99406.09
2023-02-20T02:24:08.390Z,99401.06
2023-02-20T02:26:37.777Z,99400.09
2023-02-20T02:29:10.409Z,99408.94
2023-02-20T02:31:57.093Z,99401.22
2023-02-20T02:34:36.621Z,99404.44
2023-02-20T02:37:22.005Z,99408.63
2023-02-20T02:39:51.028Z,99403.41
2023-02-20T02:42:34.343Z,99408.75
2023-02-20T02:45:02.860Z,99402.41
2023-02-20T02:47:36.283Z,99401.44
2023-02-20T02:50:04.564Z,99389.16
2023-02-20T02:52:58.074Z,99395.34
2023-02-20T02:55:25.998Z,99393.03
2023-02-20T02:57:53.311Z,99389.28
2023-02-20T03:00:24.541Z,99381.72
2023-02-20T03:02:54.352Z,99395.53
2023-02-20T03:05:23.356Z,99398.16
2023-02-20T03:07:51.226Z,99392.16
2023-02-20T03:10:20.683Z,99396.81
2023-02-20T03:12:49.087Z,99396.06
2023-02-20T03:15:37.818Z,99386.91
2023-02-20T03:18:11.608Z,99388.19
2023-02-20T03:20:42.909Z,99382.28
2023-02-20T03:23:12.124Z,99382.50
2023-02-20T03:25:39.895Z,99396.53
2023-02-20T03:28:12.103Z,99387.69
2023-02-20T03:30:46.416Z,99385.44
2023-02-20T03:33:49.880Z,99387.69
2023-02-20T03:36:35.734Z,99383.34
2023-02-20T03:39:24.717Z,99397.19
2023-02-20T03:42:09.939Z,99393.69
2023-02-20T03:44:42.700Z,99399.66
2023-02-20T03:47:09.401Z,99397.69
2023-02-20T03:49:37.221Z,99397.84
2023-02-20T03:52:03.879Z,99394.34
2023-02-20T03:54:35.575Z,99396.28
2023-02-20T03:57:15.495Z,99401.38
2023-02-20T03:59:50.867Z,99391.50
2023-02-20T04:02:23.207Z,99392.94
2023-02-20T04:04:50.641Z,99399.00
2023-02-20T04:07:43.518Z,99392.78
2023-02-20T04:10:11.822Z,99389.00
2023-02-20T04:12:39.111Z,99382.50
2023-02-20T04:15:05.995Z,99377.06
2023-02-20T04:17:40.644Z,99382.72
2023-02-20T04:20:07.521Z,99375.25
2023-02-20T04:22:40.211Z,99377.56
2023-02-20T04:25:12.672Z,99369.41
2023-02-20T04:27:39.183Z,99372.13
2023-02-20T04:30:05.993Z,99370.00
2023-02-20T04:32:32.791Z,99370.69
2023-02-20T04:34:59.375Z,99376.94
2023-02-20T04:37:26.518Z,99371.75
2023-02-20T04:39:54.415Z,99367.13
2023-02-20T04:42:21.389Z,99365.41
2023-02-20T04:44:48.981Z,99369.44
2023-02-20T04:47:16.159Z,99366.44
2023-02-20T04:49:43.466Z,99369.44
2023-02-20T04:52:11.466Z,99366.22
2023-02-20T04:54:38.891Z,99382.31
2023-02-20T04:57:06.222Z,99385.59
2023-02-20T04:59:32.726Z,99380.13
2023-02-20T05:02:01.057Z,99381.09
2023-02-20T05:04:27.511Z,99378.69
2023-02-20T05:06:54.614Z,99373.94
2023-02-20T05:09:21.216Z,99381.31
2023-02-20T05:11:47.694Z,99371.63
2023-02-20T05:14:14.088Z,99372.78
2023-02-20T05:16:41.072Z,99377.28
2023-02-20T05:19:07.752Z,99377.53
2023-02-20T05:21:53.049Z,99375.78
2023-02-20T05:24:20.597Z,99381.69
2023-02-20T05:26:47.034Z,99383.97
2023-02-20T05:29:13.697Z,99373.38
2023-02-20T05:31:40.362Z,99373.84
2023-02-20T05:34:07.433Z,99375.91
2023-02-20T05:36:33.917Z,99380.97
2023-02-20T05:39:00.402Z,99380.91
2023-02-20T05:41:26.810Z,99380.72
2023-02-20T05:43:57.385Z,99380.03
2023-02-20T05:46:24.872Z,99389.41
2023-02-20T05:48:51.651Z,99378.13
2023-02-20T05:51:22.151Z,99378.38
2023-02-20T05:53:49.050Z,99378.38
2023-02-20T05:56:15.518Z,99376.56
2023-02-20T05:58:43.961Z,99373.06
2023-02-20T06:01:16.671Z,99371.06
2023-02-20T06:03:43.078Z,99371.09
2023-02-20T06:06:09.588Z,99370.53
2023-02-20T06:08:36.077Z,99360.28
2023-02-20T06:11:02.475Z,99368.78
2023-02-20T06:13:29.251Z,99384.22
2023-02-20T06:15:55.793Z,99384.09
2023-02-20T06:18:22.278Z,99382.63
2023-02-20T06:20:49.042Z,99392.19
2023-02-20T06:23:15.462Z,99380.53
2023-02-20T06:25:41.919Z,99382.16
2023-02-20T06:28:08.349Z,99378.13
2023-02-20T06:30:34.845Z,99386.97
2023-02-20T06:33:01.289Z,99393.63
2023-02-20T06:35:27.657Z,99401.19
2023-02-20T06:37:54.443Z,99400.66
2023-02-20T06:40:24.268Z,99395.19
2023-02-20T06:42:50.822Z,99396.66
2023-02-20T06:45:17.377Z,99391.28
2023-02-20T06:47:43.849Z,99401.69
2023-02-20T06:50:10.433Z,99399.03
2023-02-20T06:52:36.964Z,99397.16
2023-02-20T06:55:03.648Z,99406.75
2023-02-20T06:57:31.775Z,99409.81
2023-02-20T06:59:58.321Z,99411.94
2023-02-20T07:02:24.769Z,99407.53
2023-02-20T07:04:51.302Z,99399.69
2023-02-20T07:07:33.849Z,99407.03
2023-02-20T07:10:01.725Z,99403.66
2023-02-20T07:12:31.755Z,99410.56
2023-02-20T07:14:58.636Z,99405.13
2023-02-20T07:17:25.504Z,99418.31
2023-02-20T07:19:54.488Z,99416.72
2023-02-20T07:22:20.973Z,99418.00
2023-02-20T07:24:54.347Z,99426.59
2023-02-20T07:27:21.144Z,99425.56
2023-02-20T07:29:56.817Z,99419.56
2023-02-20T07:32:23.726Z,99425.94
2023-02-20T07:35:02.616Z,99429.06
2023-02-20T07:37:29.898Z,99429.81
2023-02-20T07:39:56.268Z,99419.81
2023-02-20T07:42:22.648Z,99420.50
2023-02-20T07:44:51.058Z,99421.84
2023-02-20T07:47:17.507Z,99423.25
2023-02-20T07:49:44.005Z,99424.19
2023-02-20T07:52:10.894Z,99410.84
2023-02-20T07:54:37.873Z,99407.59
2023-02-20T07:57:04.277Z,99403.03
2023-02-20T07:59:30.944Z,99397.88
2023-02-20T08:01:57.338Z,99403.94
2023-02-20T08:04:23.824Z,99395.03
2023-02-20T08:06:50.329Z,99396.91
2023-02-20T08:09:16.749Z,99396.97
2023-02-20T08:11:43.135Z,99393.50
2023-02-20T08:14:09.676Z,99399.72
2023-02-20T08:16:36.147Z,99396.50
2023-02-20T08:19:02.585Z,99392.53
2023-02-20T08:21:29.130Z,99390.31
2023-02-20T08:23:55.617Z,99387.31
2023-02-20T08:26:22.017Z,99383.91
2023-02-20T08:28:49.144Z,99388.28
2023-02-20T08:31:29.933Z,99394.03
2023-02-20T08:33:58.395Z,99387.50
2023-02-20T08:36:25.336Z,99388.50
2023-02-20T08:38:58.035Z,99388.25
2023-02-20T08:41:24.428Z,99385.06
2023-02-20T08:43:50.957Z,99378.47
2023-02-20T08:46:17.724Z,99372.59
2023-02-20T08:48:47.508Z,99368.50
2023-02-20T08:51:17.958Z,99376.78
2023-02-20T08:53:44.413Z,99374.47
2023-02-20T08:56:13.102Z,99371.88
2023-02-20T08:58:45.039Z,99379.38
2023-02-20T09:01:11.680Z,99384.50
2023-02-20T09:03:42.879Z,99383.44
2023-02-20T09:06:09.394Z,99379.66
2023-02-20T09:08:35.816Z,99372.84
2023-02-20T09:11:02.577Z,99371.63
2023-02-20T09:13:29.997Z,99360.25
2023-02-20T09:15:56.446Z,99364.69
2023-02-20T09:18:23.014Z,99352.53
2023-02-20T09:20:49.730Z,99357.78
2023-02-20T09:23:16.331Z,99368.69
2023-02-20T09:25:42.727Z,99355.13
2023-02-20T09:28:09.153Z,99355.59
2023-02-20T09:30:35.643Z,99349.28
2023-02-20T09:33:02.121Z,99345.63
2023-02-20T09:35:29.544Z,99339.00
2023-02-20T09:37:56.063Z,99342.03
2023-02-20T09:40:24.307Z,99339.38
2023-02-20T09:42:50.714Z,99335.84
2023-02-20T09:45:18.959Z,99333.31
2023-02-20T09:47:50.247Z,99328.78
2023-02-20T09:50:18.546Z,99328.50
2023-02-20T09:52:45.423Z,99333.63
2023-02-20T09:55:13.220Z,99328.50
2023-02-20T09:57:39.609Z,99323.13
2023-02-20T10:00:11.202Z,99326.16
2023-02-20T10:02:38.660Z,99322.50
2023-02-20T10:05:07.304Z,99327.88
2023-02-20T10:07:37.321Z,99320.91
2023-02-20T10:10:22.164Z,99319.13
2023-02-20T10:12:51.956Z,99311.06
2023-02-20T10:15:21.321Z,99308.00
2023-02-20T10:17:51.297Z,99305.00
2023-02-20T10:20:20.152Z,99306.91
2023-02-20T10:23:08.749Z,99300.53
2023-02-20T10:25:35.773Z,99311.03
2023-02-20T10:28:28.074Z,99302.63
2023-02-20T10:30:54.718Z,99306.50
2023-02-20T10:33:32.313Z,99303.06
2023-02-20T10:36:14.087Z,99295.81
2023-02-20T10:38:42.309Z,99304.81
2023-02-20T10:41:17.851Z,99306.19
2023-02-20T10:43:46.871Z,99296.78
2023-02-20T10:46:32.346Z,99298.63
2023-02-20T10:49:03.379Z,99295.38
2023-02-20T10:51:31.130Z,99297.41
2023-02-20T10:54:02.589Z,99304.47
2023-02-20T10:56:39.529Z,99303.38
2023-02-20T10:59:08.425Z,99295.56
2023-02-20T11:01:35.480Z,99291.09
2023-02-20T11:04:16.240Z,99284.25
2023-02-20T11:06:43.884Z,99280.72
2023-02-20T11:09:10.797Z,99280.34
2023-02-20T11:11:40.366Z,99283.13
2023-02-20T11:14:14.227Z,99280.63
2023-02-20T11:16:43.427Z,99272.88
2023-02-20T11:19:15.877Z,99271.81
2023-02-20T11:21:45.317Z,99261.19
2023-02-20T11:24:23.927Z,99259.66
2023-02-20T11:26:53.858Z,99258.56
2023-02-20T11:29:20.660Z,99251.69
2023-02-20T11:31:47.908Z,99251.31
2023-02-20T11:34:24.593Z,99252.84
2023-02-20T11:36:54.516Z,99242.88
2023-02-20T11:39:24.966Z,99247.91
2023-02-20T11:41:53.240Z,99242.00
2023-02-20T11:44:21.204Z,99231.97
2023-02-20T11:46:48.360Z,99227.81
2023-02-20T11:49:25.102Z,99227.25
2023-02-20T11:51:51.510Z,99226.13
2023-02-20T11:54:22.187Z,99220.38
2023-02-20T11:56:54.848Z,99220.34
2023-02-20T11:59:32.218Z,99209.22
2023-02-20T12:02:17.172Z,99214.88
2023-02-20T12:04:44.746Z,99197.91
2023-02-20T12:07:18.975Z,99200.97
2023-02-20T12:09:49.052Z,99192.97
2023-02-20T12:12:15.439Z,99186.41
2023-02-20T12:14:45.199Z,99183.78
2023-02-20T12:17:19.524Z,99181.72
2023-02-20T12:19:52.998Z,99181.94
2023-02-20T12:22:26.509Z,99166.69
2023-02-20T12:25:02.838Z,99159.16
2023-02-20T12:27:48.191Z,99156.28
2023-02-20T12:30:33.705Z,99153.13
2023-02-20T12:33:10.887Z,99142.63
2023-02-20T12:35:39.576Z,99143.81
2023-02-20T12:38:28.161Z,99129.25
2023-02-20T12:41:16.201Z,99118.09
2023-02-20T12:43:52.459Z,99113.72
2023-02-20T12:46:24.789Z,99120.28
2023-02-20T12:48:56.708Z,99112.06
2023-02-20T12:51:41.966Z,99099.72
2023-02-20T12:54:26.964Z,99099.81
2023-02-20T12:56:53.286Z,99096.47
2023-02-20T12:59:25.347Z,99088.91
2023-02-20T13:01:51.905Z,99086.03
2023-02-20T13:04:32.883Z,99082.56
2023-02-20T13:07:19.589Z,99081.09
2023-02-20T13:09:52.792Z,99074.91
2023-02-20T13:12:19.253Z,99077.16
2023-02-20T13:14:53.311Z,99074.53
2023-02-20T13:17:22.924Z,99065.13
2023-02-20T13:19:52.669Z,99059.97
2023-02-20T13:22:19.078Z,99058.78
2023-02-20T13:24:46.463Z,99050.16
2023-02-20T13:27:27.484Z,99046.31
2023-02-20T13:29:58.081Z,99041.84
2023-02-20T13:32:25.623Z,99035.19
2023-02-20T13:34:52.148Z,99021.16
2023-02-20T13:37:33.804Z,99013.50
2023-02-20T13:40:19.173Z,99006.88
2023-02-20T13:42:45.569Z,99002.22
2023-02-20T13:45:31.269Z,98995.69
2023-02-20T13:48:16.906Z,98982.94
2023-02-20T13:50:43.291Z,98983.09
2023-02-20T13:53:09.848Z,98987.53
2023-02-20T13:55:40.660Z,98980.91
2023-02-20T13:58:12.006Z,98977.66
2023-02-20T14:00:45.302Z,98971.97
2023-02-20T14:03:13.106Z,98976.81
2023-02-20T14:05:39.573Z,98965.84
2023-02-20T14:08:06.080Z,98959.75
2023-02-20T14:10:34.011Z,98974.88
2023-02-20T14:13:00.548Z,98976.22
2023-02-20T14:15:27.238Z,98964.34
2023-02-20T14:17:53.666Z,98969.06
2023-02-20T14:20:22.949Z,98961.69
2023-02-20T14:22:50.528Z,98963.75
2023-02-20T14:25:24.038Z,98973.13
2023-02-20T14:27:50.746Z,98979.56
2023-02-20T14:30:17.256Z,98969.75
2023-02-20T14:32:44.918Z,98977.53
2023-02-20T14:35:26.735Z,98976.69
2023-02-20T14:37:57.725Z,98970.59
2023-02-20T14:40:37.785Z,98968.25
2023-02-20T14:43:04.613Z,98963.59
2023-02-20T14:45:32.392Z,98967.31
2023-02-20T14:47:59.867Z,98966.38
2023-02-20T14:50:26.189Z,98943.78
2023-02-20T14:53:01.762Z,98931.03
2023-02-20T14:55:28.138Z,98945.13
2023-02-20T14:57:54.558Z,98947.66
2023-02-20T15:00:21.068Z,98932.88
2023-02-20T15:02:48.271Z,98938.56
2023-02-20T15:05:18.117Z,98943.44
2023-02-20T15:07:44.549Z,98938.69
2023-02-20T15:10:43.522Z,98929.28
2023-02-20T15:13:11.053Z,98941.16
2023-02-20T15:15:38.705Z,98929.28
2023-02-20T15:18:17.473Z,98937.88
2023-02-20T15:20:45.193Z,98930.75
2023-02-20T15:23:23.845Z,98931.41
2023-02-20T15:25:50.244Z,98934.03
2023-02-20T15:28:19.707Z,98933.25
2023-02-20T15:31:05.277Z,98930.59
2023-02-20T15:33:33.061Z,98931.75
2023-02-20T15:35:59.481Z,98927.56
2023-02-20T15:38:27.367Z,98934.22
2023-02-20T15:40:56.085Z,98933.91
2023-02-20T15:43:47.108Z,98921.47
2023-02-20T15:46:08.948Z,98912.88
2023-02-20T15:48:35.366Z,98920.03
2023-02-20T15:51:01.982Z,98916.56
2023-02-20T15:53:29.527Z,98918.50
2023-02-20T15:55:56.147Z,98917.38
2023-02-20T15:58:28.029Z,98914.88
2023-02-20T16:00:56.087Z,98906.69
2023-02-20T16:03:26.626Z,98899.22
2023-02-20T16:05:53.366Z,98921.34
2023-02-20T16:08:19.986Z,98904.91
2023-02-20T16:10:46.448Z,98903.59
2023-02-20T16:13:21.234Z,98906.50
2023-02-20T16:15:47.653Z,98905.75
2023-02-20T16:18:14.041Z,98908.84
2023-02-20T16:20:40.608Z,98900.28
2023-02-20T16:23:08.592Z,98911.91
2023-02-20T16:25:35.970Z,98905.06
2023-02-20T16:28:02.478Z,98902.97
2023-02-20T16:30:34.393Z,98904.78
2023-02-20T16:33:02.327Z,98899.75
2023-02-20T16:35:28.792Z,98910.81
2023-02-20T16:37:55.245Z,98900.09
2023-02-20T16:40:21.648Z,98909.41
2023-02-20T16:42:48.052Z,98911.84
2023-02-20T16:45:16.136Z,98909.00
2023-02-20T16:47:43.170Z,98893.72
2023-02-20T16:50:16.121Z,98890.75
2023-02-20T16:52:42.518Z,98895.97
2023-02-20T16:55:23.071Z,98892.19
2023-02-20T16:57:49.515Z,98893.22
2023-02-20T17:00:16.939Z,98887.63
2023-02-20T17:02:43.500Z,98893.78
2023-02-20T17:05:10.096Z,98891.56
2023-02-20T17:07:37.244Z,98891.38
2023-02-20T17:10:04.450Z,98888.00
2023-02-20T17:12:31.595Z,98888.50
2023-02-20T17:14:58.236Z,98886.09
2023-02-20T17:17:24.746Z,98888.56
2023-02-20T17:19:55.880Z,98893.84
2023-02-20T17:22:22.936Z,98896.53
2023-02-20T17:24:49.649Z,98903.22
2023-02-20T17:27:16.199Z,98892.47
2023-02-20T17:29:43.155Z,98902.53
2023-02-20T17:32:09.568Z,98900.88
2023-02-20T17:34:35.984Z,98896.97
2023-02-20T17:37:02.468Z,98901.78
2023-02-20T17:39:28.856Z,98902.69
2023-02-20T17:41:55.594Z,98902.50
2023-02-20T17:44:24.216Z,98901.75
2023-02-20T17:46:51.581Z,98910.09
2023-02-20T17:49:18.361Z,98899.88
2023-02-20T17:51:45.017Z,98901.34
2023-02-20T17:54:11.997Z,98902.44
2023-02-20T17:56:42.235Z,98902.81
2023-02-20T17:59:08.798Z,98887.25
2023-02-20T18:01:35.212Z,98886.97
2023-02-20T18:04:04.645Z,98888.34
2023-02-20T18:06:31.411Z,98886.09
2023-02-20T18:08:57.806Z,98892.63
2023-02-20T18:11:24.216Z,98881.94
2023-02-20T18:13:50.636Z,98891.56
2023-02-20T18:16:17.317Z,98893.25
2023-02-20T18:18:43.958Z,98897.53
2023-02-20T18:21:17.820Z,98900.50
2023-02-20T18:23:44.582Z,98906.84
2023-02-20T18:26:11.391Z,98909.00
2023-02-20T18:28:38.079Z,98900.69
2023-02-20T18:31:04.484Z,98911.53
2023-02-20T18:33:31.397Z,98903.66
2023-02-20T18:36:07.577Z,98905.03
2023-02-20T18:38:34.834Z,98907.28
2023-02-20T18:41:01.244Z,98909.53
2023-02-20T18:43:28.115Z,98902.63
2023-02-20T18:45:54.918Z,98903.38
2023-02-20T18:48:21.402Z,98899.66
2023-02-20T18:50:49.402Z,98908.97
2023-02-20T18:53:15.917Z,98907.09
2023-02-20T18:55:42.365Z,98901.59
2023-02-20T18:58:08.769Z,98911.84
2023-02-20T19:00:35.216Z,98900.97
2023-02-20T19:03:02.538Z,98900.97
2023-02-20T19:05:28.918Z,98897.66
2023-02-20T19:07:55.309Z,98898.59
2023-02-20T19:10:22.477Z,98890.72
2023-02-20T19:12:49.316Z,98890.91
2023-02-20T19:15:16.101Z,98890.69
2023-02-20T19:17:43.738Z,98888.19
2023-02-20T19:20:14.680Z,98885.09
2023-02-20T19:22:41.077Z,98886.56
2023-02-20T19:25:07.549Z,98885.28
2023-02-20T19:27:33.998Z,98884.75
2023-02-20T19:30:00.389Z,98886.50
2023-02-20T19:32:26.996Z,98893.03
2023-02-20T19:34:53.446Z,98890.31
2023-02-20T19:37:19.821Z,98885.94
2023-02-20T19:39:46.242Z,98892.03
2023-02-20T19:42:13.709Z,98889.78
2023-02-20T19:44:40.150Z,98888.78
2023-02-20T19:47:06.832Z,98884.91
2023-02-20T19:49:33.713Z,98894.94
2023-02-20T19:52:00.205Z,98893.84
2023-02-20T19:54:27.751Z,98890.38
2023-02-20T19:56:55.770Z,98895.56
2023-02-20T19:59:22.208Z,98889.69
2023-02-20T20:01:48.700Z,98893.13
2023-02-20T20:04:15.235Z,98887.47
2023-02-20T20:06:41.725Z,98878.59
2023-02-20T20:09:14.964Z,98876.06
2023-02-20T20:11:41.502Z,98876.41
2023-02-20T20:14:07.998Z,98870.53
2023-02-20T20:16:37.660Z,98872.00
2023-02-20T20:19:04.895Z,98879.38
2023-02-20T20:21:31.793Z,98879.53
2023-02-20T20:23:58.470Z,98875.25
2023-02-20T20:26:29.384Z,98885.81
2023-02-20T20:28:55.904Z,98882.31
2023-02-20T20:31:22.939Z,98889.34
2023-02-20T20:33:49.381Z,98888.88
2023-02-20T20:36:15.968Z,98880.81
2023-02-20T20:38:42.657Z,98878.16
2023-02-20T20:41:10.144Z,98885.09
2023-02-20T20:43:36.669Z,98883.81
2023-02-20T20:46:03.774Z,98884.13
2023-02-20T20:48:30.334Z,98884.53
2023-02-20T20:50:57.372Z,98885.16
2023-02-20T20:53:23.789Z,98876.88
2023-02-20T20:55:50.306Z,98879.13
2023-02-20T20:58:16.722Z,98889.34
2023-02-20T21:00:43.097Z,98891.00
2023-02-20T21:03:10.912Z,98887.31
2023-02-20T21:05:37.506Z,98885.69
2023-02-20T21:08:06.248Z,98883.03
2023-02-20T21:10:32.828Z,98880.56
2023-02-20T21:12:59.239Z,98876.75
2023-02-20T21:15:26.054Z,98884.38
2023-02-20T21:17:52.906Z,98888.84
2023-02-20T21:20:22.400Z,98874.63
2023-02-20T21:22:50.934Z,98880.59
2023-02-20T21:25:17.980Z,98874.31
2023-02-20T21:27:47.591Z,98878.91
2023-02-20T21:30:14.385Z,98886.13
2023-02-20T21:32:40.969Z,98875.72
2023-02-20T21:35:07.399Z,98881.44
2023-02-20T21:37:33.813Z,98877.38
2023-02-20T21:40:01.815Z,98873.25
2023-02-20T21:42:46.985Z,98879.53
2023-02-20T21:45:13.612Z,98878.03
2023-02-20T21:47:40.515Z,98869.50
2023-02-20T21:50:07.097Z,98873.41
2023-02-20T21:52:37.309Z,98871.25
2023-02-20T21:55:05.465Z,98875.66
2023-02-20T21:57:31.847Z,98872.34
2023-02-20T21:59:59.373Z,98868.44
2023-02-20T22:02:25.780Z,98871.41
2023-02-20T22:04:52.185Z,98866.09
2023-02-20T22:07:37.454Z,98862.91
2023-02-20T22:10:22.957Z,98866.09
2023-02-20T22:13:08.853Z,98865.22
2023-02-20T22:15:54.021Z,98876.94
2023-02-20T22:18:39.355Z,98868.66
2023-02-20T22:21:24.322Z,98863.97
2023-02-20T22:24:09.433Z,98861.03
2023-02-20T22:26:54.545Z,98857.31
2023-02-20T22:29:39.636Z,98874.72
2023-02-20T22:32:25.018Z,98869.69
2023-02-20T22:35:12.207Z,98875.75
2023-02-20T22:37:58.023Z,98876.00
2023-02-20T22:40:43.499Z,98881.09
2023-02-20T22:43:28.745Z,98881.72
2023-02-20T22:46:13.724Z,98880.38
2023-02-20T22:48:58.964Z,98876.94
2023-02-20T22:51:43.927Z,98880.13
2023-02-20T22:54:28.858Z,98867.50
2023-02-20T22:57:15.912Z,98856.50
2023-02-20T23:00:02.038Z,98864.59
2023-02-20T23:02:50.424Z,98855.38
2023-02-20T23:05:35.386Z,98857.22
2023-02-20T23:08:20.666Z,98857.94
2023-02-20T23:11:05.555Z,98855.88
2023-02-20T23:13:50.633Z,98859.69
2023-02-20T23:16:43.259Z,98849.13
2023-02-20T23:19:29.341Z,98850.00
2023-02-20T23:22:14.779Z,98847.47
2023-02-20T23:25:00.563Z,98849.91
2023-02-20T23:27:45.942Z,98844.91
2023-02-20T23:30:31.495Z,98848.78
2023-02-20T23:33:16.588Z,98845.78
2023-02-20T23:36:01.534Z,98840.91
2023-02-20T23:38:46.761Z,98836.13
2023-02-20T23:41:31.929Z,98847.75
2023-02-20T23:44:16.924Z,98839.91
2023-02-20T23:47:03.801Z,98843.66
2023-02-20T23:49:48.846Z,98840.38
2023-02-20T23:52:33.923Z,98838.59
2023-02-20T23:55:18.907Z,98833.66
2023-02-20T23:58:04.005Z,98829.22
